sensor_id;sensor_type;location;lat;lon;timestamp;temperature;humidity
44359;DHT22;30077;52.474;13.326;2023-10-13T00:07:20;14.10;99.90
44359;DHT22;30077;52.474;13.326;2023-10-13T00:17:24;14.10;99.90
44359;DHT22;30077;52.474;13.326;2023-10-13T00:27:25;14.00;99.90
44359;DHT22;30077;52.474;13.326;2023-10-13T00:37:30;14.10;99.90
44359;DHT22;30077;52.474;13.326;2023-10-13T00:47:41;14.10;99.90
44359;DHT22;30077;52.474;13.326;2023-10-13T00:57:53;14.10;99.90
44359;DHT22;30077;52.474;13.326;2023-10-13T01:08:01;14.10;99.90
44359;DHT22;30077;52.474;13.326;2023-10-13T01:18:11;14.10;99.90
44359;DHT22;30077;52.474;13.326;2023-10-13T01:28:14;14.10;99.90
44359;DHT22;30077;52.474;13.326;2023-10-13T01:38:16;14.10;99.90
44359;DHT22;30077;52.474;13.326;2023-10-13T01:48:17;14.20;99.90
44359;DHT22;30077;52.474;13.326;2023-10-13T01:58:21;14.10;99.90
44359;DHT22;30077;52.474;13.326;2023-10-13T02:08:23;14.10;99.90
44359;DHT22;30077;52.474;13.326;2023-10-13T02:18:26;14.10;99.90
44359;DHT22;30077;52.474;13.326;2023-10-13T02:28:28;14.10;99.90
44359;DHT22;30077;52.474;13.326;2023-10-13T02:38:34;14.20;99.90
44359;DHT22;30077;52.474;13.326;2023-10-13T02:48:37;14.10;99.90
44359;DHT22;30077;52.474;13.326;2023-10-13T02:58:41;14.20;99.90
44359;DHT22;30077;52.474;13.326;2023-10-13T03:08:45;14.20;99.90
44359;DHT22;30077;52.474;13.326;2023-10-13T03:18:47;14.20;99.90
44359;DHT22;30077;52.474;13.326;2023-10-13T03:28:57;14.20;99.90
44359;DHT22;30077;52.474;13.326;2023-10-13T03:38:58;14.20;99.90
44359;DHT22;30077;52.474;13.326;2023-10-13T03:48:58;14.20;99.90
44359;DHT22;30077;52.474;13.326;2023-10-13T03:59:02;14.20;99.90
44359;DHT22;30077;52.474;13.326;2023-10-13T04:09:18;14.20;99.90
44359;DHT22;30077;52.474;13.326;2023-10-13T04:19:31;14.30;99.90
44359;DHT22;30077;52.474;13.326;2023-10-13T04:29:46;14.30;99.90
44359;DHT22;30077;52.474;13.326;2023-10-13T04:40:07;14.30;99.90
44359;DHT22;30077;52.474;13.326;2023-10-13T04:50:11;14.30;99.90
44359;DHT22;30077;52.474;13.326;2023-10-13T05:00:23;14.40;99.90
44359;DHT22;30077;52.474;13.326;2023-10-13T05:10:46;14.40;99.90
44359;DHT22;30077;52.474;13.326;2023-10-13T05:21:05;14.40;99.90
44359;DHT22;30077;52.474;13.326;2023-10-13T05:31:24;14.50;99.90
44359;DHT22;30077;52.474;13.326;2023-10-13T05:41:43;14.50;99.90
44359;DHT22;30077;52.474;13.326;2023-10-13T05:52:02;14.50;99.90
44359;DHT22;30077;52.474;13.326;2023-10-13T06:02:24;14.50;99.90
44359;DHT22;30077;52.474;13.326;2023-10-13T06:12:43;14.60;99.90
44359;DHT22;30077;52.474;13.326;2023-10-13T06:23:02;14.80;99.90
44359;DHT22;30077;52.474;13.326;2023-10-13T06:33:22;15.00;99.90
44359;DHT22;30077;52.474;13.326;2023-10-13T06:43:29;15.10;99.90
44359;DHT22;30077;52.474;13.326;2023-10-13T06:53:32;15.00;99.90
44359;DHT22;30077;52.474;13.326;2023-10-13T07:03:37;15.20;99.90
44359;DHT22;30077;52.474;13.326;2023-10-13T07:13:37;15.60;99.90
44359;DHT22;30077;52.474;13.326;2023-10-13T07:23:39;16.10;99.90
44359;DHT22;30077;52.474;13.326;2023-10-13T07:33:40;16.40;99.90
44359;DHT22;30077;52.474;13.326;2023-10-13T07:43:42;16.70;99.90
44359;DHT22;30077;52.474;13.326;2023-10-13T07:53:46;16.90;99.90
44359;DHT22;30077;52.474;13.326;2023-10-13T08:03:49;17.10;99.90
44359;DHT22;30077;52.474;13.326;2023-10-13T08:14:05;17.10;99.90
44359;DHT22;30077;52.474;13.326;2023-10-13T08:24:16;17.20;99.90
44359;DHT22;30077;52.474;13.326;2023-10-13T08:34:25;17.50;99.90
44359;DHT22;30077;52.474;13.326;2023-10-13T08:44:30;18.10;99.90
44359;DHT22;30077;52.474;13.326;2023-10-13T08:54:36;18.00;99.90
44359;DHT22;30077;52.474;13.326;2023-10-13T09:04:46;17.90;99.90
44359;DHT22;30077;52.474;13.326;2023-10-13T09:14:55;17.90;99.90
44359;DHT22;30077;52.474;13.326;2023-10-13T09:24:59;18.20;99.90
44359;DHT22;30077;52.474;13.326;2023-10-13T09:35:01;18.10;99.90
44359;DHT22;30077;52.474;13.326;2023-10-13T09:45:03;18.20;99.90
44359;DHT22;30077;52.474;13.326;2023-10-13T09:55:29;18.00;99.90
44359;DHT22;30077;52.474;13.326;2023-10-13T10:05:31;17.80;99.90
44359;DHT22;30077;52.474;13.326;2023-10-13T10:15:35;18.10;99.90
44359;DHT22;30077;52.474;13.326;2023-10-13T10:25:46;18.40;99.90
44359;DHT22;30077;52.474;13.326;2023-10-13T10:35:58;18.10;99.90
44359;DHT22;30077;52.474;13.326;2023-10-13T10:46:00;18.00;99.90
44359;DHT22;30077;52.474;13.326;2023-10-13T10:56:07;17.90;99.90
44359;DHT22;30077;52.474;13.326;2023-10-13T11:06:19;17.90;99.90
44359;DHT22;30077;52.474;13.326;2023-10-13T11:16:21;18.00;99.90
44359;DHT22;30077;52.474;13.326;2023-10-13T11:26:34;18.40;99.90
44359;DHT22;30077;52.474;13.326;2023-10-13T11:36:35;18.50;99.90
44359;DHT22;30077;52.474;13.326;2023-10-13T11:46:35;18.50;99.90
44359;DHT22;30077;52.474;13.326;2023-10-13T11:56:36;18.50;99.90
44359;DHT22;30077;52.474;13.326;2023-10-13T12:06:39;18.70;99.90
44359;DHT22;30077;52.474;13.326;2023-10-13T12:16:39;19.20;99.90
44359;DHT22;30077;52.474;13.326;2023-10-13T12:26:40;19.20;99.90
44359;DHT22;30077;52.474;13.326;2023-10-13T12:36:43;19.50;99.90
44359;DHT22;30077;52.474;13.326;2023-10-13T12:46:53;19.70;99.90
44359;DHT22;30077;52.474;13.326;2023-10-13T12:57:14;19.90;99.90
44359;DHT22;30077;52.474;13.326;2023-10-13T13:07:15;20.10;99.90
44359;DHT22;30077;52.474;13.326;2023-10-13T13:17:16;20.20;99.90
44359;DHT22;30077;52.474;13.326;2023-10-13T13:27:17;20.50;99.90
44359;DHT22;30077;52.474;13.326;2023-10-13T13:37:20;20.50;99.90
44359;DHT22;30077;52.474;13.326;2023-10-13T13:47:21;20.80;99.90
44359;DHT22;30077;52.474;13.326;2023-10-13T13:57:23;21.10;99.90
44359;DHT22;30077;52.474;13.326;2023-10-13T14:07:24;21.00;99.90
44359;DHT22;30077;52.474;13.326;2023-10-13T14:17:26;21.10;99.90
44359;DHT22;30077;52.474;13.326;2023-10-13T14:27:29;21.00;99.90
44359;DHT22;30077;52.474;13.326;2023-10-13T14:37:30;20.90;99.90
44359;DHT22;30077;52.474;13.326;2023-10-13T14:47:31;20.90;99.90
44359;DHT22;30077;52.474;13.326;2023-10-13T14:57:34;20.70;99.90
44359;DHT22;30077;52.474;13.326;2023-10-13T15:07:38;20.50;99.90
44359;DHT22;30077;52.474;13.326;2023-10-13T15:17:40;20.40;99.90
44359;DHT22;30077;52.474;13.326;2023-10-13T15:27:41;20.30;99.90
44359;DHT22;30077;52.474;13.326;2023-10-13T15:37:41;20.20;99.90
44359;DHT22;30077;52.474;13.326;2023-10-13T15:47:48;20.20;99.90
44359;DHT22;30077;52.474;13.326;2023-10-13T15:57:49;19.90;99.90
44359;DHT22;30077;52.474;13.326;2023-10-13T16:07:53;19.80;99.90
44359;DHT22;30077;52.474;13.326;2023-10-13T16:17:56;19.80;99.90
44359;DHT22;30077;52.474;13.326;2023-10-13T16:27:59;19.60;99.90
44359;DHT22;30077;52.474;13.326;2023-10-13T16:37:59;19.60;99.90
44359;DHT22;30077;52.474;13.326;2023-10-13T16:48:06;19.60;99.90
44359;DHT22;30077;52.474;13.326;2023-10-13T16:58:08;19.40;99.90
44359;DHT22;30077;52.474;13.326;2023-10-13T17:08:11;19.40;99.90
44359;DHT22;30077;52.474;13.326;2023-10-13T17:18:13;19.50;99.90
44359;DHT22;30077;52.474;13.326;2023-10-13T17:28:16;19.60;99.90
44359;DHT22;30077;52.474;13.326;2023-10-13T17:38:17;19.50;99.90
44359;DHT22;30077;52.474;13.326;2023-10-13T17:48:17;19.60;99.90
44359;DHT22;30077;52.474;13.326;2023-10-13T17:58:18;19.60;99.90
44359;DHT22;30077;52.474;13.326;2023-10-13T18:08:22;19.50;99.90
44359;DHT22;30077;52.474;13.326;2023-10-13T18:18:23;19.50;99.90
44359;DHT22;30077;52.474;13.326;2023-10-13T18:28:23;19.50;99.90
44359;DHT22;30077;52.474;13.326;2023-10-13T18:38:24;19.50;99.90
44359;DHT22;30077;52.474;13.326;2023-10-13T18:48:30;19.60;99.90
44359;DHT22;30077;52.474;13.326;2023-10-13T18:58:31;19.70;99.90
44359;DHT22;30077;52.474;13.326;2023-10-13T19:08:34;19.70;99.90
44359;DHT22;30077;52.474;13.326;2023-10-13T19:18:35;19.70;99.90
44359;DHT22;30077;52.474;13.326;2023-10-13T19:28:39;19.60;99.90
44359;DHT22;30077;52.474;13.326;2023-10-13T19:38:43;19.50;99.90
44359;DHT22;30077;52.474;13.326;2023-10-13T19:48:44;19.40;99.90
44359;DHT22;30077;52.474;13.326;2023-10-13T19:58:47;19.40;99.90
44359;DHT22;30077;52.474;13.326;2023-10-13T20:08:55;19.40;99.90
44359;DHT22;30077;52.474;13.326;2023-10-13T20:19:09;19.40;99.90
44359;DHT22;30077;52.474;13.326;2023-10-13T20:29:13;19.40;99.90
44359;DHT22;30077;52.474;13.326;2023-10-13T20:39:17;19.40;99.90
44359;DHT22;30077;52.474;13.326;2023-10-13T20:49:44;19.40;99.90
44359;DHT22;30077;52.474;13.326;2023-10-13T20:59:46;19.40;99.90
44359;DHT22;30077;52.474;13.326;2023-10-13T21:09:49;19.40;99.90
44359;DHT22;30077;52.474;13.326;2023-10-13T21:19:49;19.50;99.90
44359;DHT22;30077;52.474;13.326;2023-10-13T21:29:50;19.40;99.90
44359;DHT22;30077;52.474;13.326;2023-10-13T21:39:51;19.30;99.90
44359;DHT22;30077;52.474;13.326;2023-10-13T21:49:51;19.20;99.90
44359;DHT22;30077;52.474;13.326;2023-10-13T21:59:52;19.20;99.90
44359;DHT22;30077;52.474;13.326;2023-10-13T22:09:53;19.10;99.90
44359;DHT22;30077;52.474;13.326;2023-10-13T22:19:53;19.10;99.90
44359;DHT22;30077;52.474;13.326;2023-10-13T22:29:54;19.00;99.90
44359;DHT22;30077;52.474;13.326;2023-10-13T22:39:56;18.80;99.90
44359;DHT22;30077;52.474;13.326;2023-10-13T22:50:00;18.90;99.90
44359;DHT22;30077;52.474;13.326;2023-10-13T23:00:03;19.00;99.90
44359;DHT22;30077;52.474;13.326;2023-10-13T23:10:10;19.10;99.90
44359;DHT22;30077;52.474;13.326;2023-10-13T23:20:31;19.20;99.90
44359;DHT22;30077;52.474;13.326;2023-10-13T23:30:38;19.20;99.90
44359;DHT22;30077;52.474;13.326;2023-10-13T23:40:39;19.20;99.90
44359;DHT22;30077;52.474;13.326;2023-10-13T23:50:45;18.90;99.90
